KSLE/SLE METAR and TAF weather

Enter ICAO airport designator
Station Type Date Time Source
KSLE METAR 2020/09/20 09:56 UTC NOAA

KSLE 200956Z AUTO 00000KT 10SM FEW035 11/09 A3010 RMK AO2 SLP193 T01060089


Station Type Date Time Source
KSLE Decoded METAR 2020/09/20 09:56 UTC NOAA

SALEM MCNARY FIELD, OR, United States (KSLE) 44-54N 123-00W 59M
Sep 20, 2020 - 05:56 AM EDT / 2020.09.20 0956 UTC
Wind: Calm:0
Visibility: 10 mile(s):0
Sky conditions: mostly clear
Temperature: 51.1 F (10.6 C)
Dew Point: 48.0 F (8.9 C)
Relative Humidity: 89%
Pressure (altimeter): 30.1 in. Hg (1019 hPa)
ob: KSLE 200956Z AUTO 00000KT 10SM FEW035 11/09 A3010 RMK AO2 SLP193 T01060089
cycle: 10

Station Type Date Time Source
KSLE TAF 2020/09/20 06:22 UTC NOAA

TAF KSLE 200520Z 2006/2106 00000KT P6SM SCT150
FM201300 00000KT P6SM OVC025
FM201600 00000KT P6SM SCT080
FM202000 01007KT P6SM SCT250

Example: see airport list